Time;durP1;ratioP1;P1;durP2;ratioP2;P2;SDS_P1;SDS_P2;PMS_P1;PMS_P2;Temp;Humidity;BMP_temperature;BMP_pressure;BME280_temperature;BME280_humidity;BME280_pressure;Samples;Min_cycle;Max_cycle;Signal;HPM_P1;HPM_P2
2022/02/06 00:01:59;;;;;;;7.78;7.05;;;4.40;99.90;;;;;;5045973;28;20297;-66
2022/02/06 00:04:28;;;;;;;6.97;6.38;;;4.40;99.90;;;;;;5046819;28;20191;-67
2022/02/06 00:06:55;;;;;;;6.10;5.60;;;4.40;99.90;;;;;;5042775;28;20218;-66
2022/02/06 00:09:22;;;;;;;6.60;6.00;;;4.40;99.90;;;;;;5045204;28;20198;-66
2022/02/06 00:11:49;;;;;;;6.53;5.93;;;4.40;99.90;;;;;;5039627;28;20226;-67
2022/02/06 00:14:16;;;;;;;6.53;5.93;;;4.40;99.90;;;;;;5043522;28;20203;-66
2022/02/06 00:16:43;;;;;;;6.65;5.78;;;4.40;99.90;;;;;;5044768;28;20654;-66
2022/02/06 00:19:10;;;;;;;6.40;5.90;;;4.30;99.90;;;;;;5044049;28;20199;-66
2022/02/06 00:21:38;;;;;;;6.78;6.15;;;4.30;99.90;;;;;;5045671;28;20219;-66
2022/02/06 00:24:09;;;;;;;6.28;5.68;;;4.30;99.90;;;;;;5042398;28;20673;-66
2022/02/06 00:26:40;;;;;;;6.40;5.80;;;4.30;99.90;;;;;;5044967;28;20218;-66
2022/02/06 00:29:18;;;;;;;6.28;5.70;;;4.20;99.90;;;;;;5044237;28;20286;-66
2022/02/06 00:31:54;;;;;;;10.88;5.75;;;4.20;99.90;;;;;;5036112;28;20219;-66
2022/02/06 00:40:00;;;;;;;6.30;5.40;;;4.00;99.90;;;;;;5044058;28;20731;-66
2022/02/06 00:42:27;;;;;;;5.38;4.88;;;4.00;99.90;;;;;;5042021;28;20218;-66
2022/02/06 00:44:54;;;;;;;5.47;5.03;;;4.00;99.90;;;;;;5043866;28;20262;-66
2022/02/06 00:47:23;;;;;;;6.00;5.50;;;3.90;99.90;;;;;;5045705;28;20222;-66
2022/02/06 00:49:50;;;;;;;5.25;4.85;;;3.90;99.90;;;;;;5042986;28;20210;-65
2022/02/06 00:52:21;;;;;;;5.40;4.90;;;3.90;99.90;;;;;;5043235;28;21028;-66
2022/02/06 00:54:48;;;;;;;5.18;4.78;;;3.90;99.90;;;;;;5044918;28;20207;-66
2022/02/06 00:57:15;;;;;;;5.47;5.07;;;3.90;99.90;;;;;;5045237;28;20269;-66
2022/02/06 00:59:43;;;;;;;5.43;5.03;;;3.90;99.90;;;;;;5041320;28;20207;-66
2022/02/06 01:02:10;;;;;;;5.22;4.82;;;3.90;99.90;;;;;;5041571;28;20230;-66
2022/02/06 01:04:37;;;;;;;5.07;4.65;;;4.00;99.90;;;;;;5040863;28;20293;-67
2022/02/06 01:07:04;;;;;;;5.10;4.60;;;4.00;99.90;;;;;;5042198;28;20285;-66
2022/02/06 01:09:33;;;;;;;5.00;4.60;;;3.90;99.90;;;;;;5046384;28;20669;-67
2022/02/06 01:12:00;;;;;;;5.10;4.70;;;3.90;99.90;;;;;;5042979;28;20212;-67
2022/02/06 01:14:41;;;;;;;5.18;4.68;;;3.80;99.90;;;;;;5045099;28;20214;-67
2022/02/06 01:17:19;;;;;;;5.30;4.45;;;3.80;99.90;;;;;;5045389;28;20349;-67
2022/02/06 01:19:57;;;;;;;5.18;4.78;;;3.70;99.90;;;;;;5046409;28;20202;-67
2022/02/06 01:22:26;;;;;;;4.85;4.45;;;3.70;99.90;;;;;;5045131;28;20215;-67
2022/02/06 01:25:06;;;;;;;5.22;4.82;;;3.70;99.90;;;;;;5045580;28;20305;-67
2022/02/06 01:27:41;;;;;;;4.22;3.83;;;3.60;99.90;;;;;;5040258;28;20281;-68
2022/02/06 01:30:15;;;;;;;5.07;4.68;;;3.60;99.90;;;;;;5041047;28;20194;-68
2022/02/06 01:32:49;;;;;;;4.63;4.32;;;3.60;99.90;;;;;;5038624;28;20214;-67
2022/02/06 01:35:25;;;;;;;4.30;3.97;;;3.60;99.90;;;;;;5041475;28;20203;-68
2022/02/06 01:37:59;;;;;;;4.90;4.50;;;3.60;99.90;;;;;;5043959;28;20649;-67
2022/02/06 01:40:38;;;;;;;4.97;4.57;;;3.60;99.90;;;;;;5043886;28;20621;-68
2022/02/06 01:43:09;;;;;;;5.93;4.55;;;3.60;99.90;;;;;;5035447;28;20223;-68
2022/02/06 01:45:57;;;;;;;4.60;4.22;;;3.50;99.90;;;;;;5042152;28;20198;-68
2022/02/06 02:02:44;;;;;;;3.78;3.47;;;3.40;99.90;;;;;;5000473;28;20804;-68
2022/02/06 02:05:48;;;;;;;3.85;3.60;;;3.40;99.90;;;;;;5001930;28;20563;-68
2022/02/06 02:08:43;;;;;;;3.95;3.65;;;3.30;99.90;;;;;;5030879;28;20306;-68
2022/02/06 02:14:04;;;;;;;3.72;3.42;;;3.20;99.90;;;;;;5045300;28;20579;-67
2022/02/06 02:25:37;;;;;;;3.80;3.50;;;3.20;99.90;;;;;;5046279;28;20194;-67
2022/02/06 02:28:30;;;;;;;3.63;3.42;;;3.10;99.90;;;;;;5054746;28;20222;-67
2022/02/06 02:42:54;;;;;;;3.45;3.15;;;3.10;99.90;;;;;;5040967;28;20858;-67
2022/02/06 02:45:10;;;;;;;3.97;3.78;;;2.90;99.90;;;;;;5044012;28;20297;-67
2022/02/06 02:47:38;;;;;;;3.35;3.15;;;2.90;99.90;;;;;;5063645;28;20227;-68
2022/02/06 02:50:12;;;;;;;3.17;2.97;;;2.80;99.90;;;;;;5067975;28;20217;-67
2022/02/06 02:52:51;;;;;;;3.20;3.00;;;2.80;99.90;;;;;;5063744;28;20637;-67
2022/02/06 02:55:32;;;;;;;3.50;3.30;;;2.80;99.90;;;;;;5045108;28;20209;-67
2022/02/06 02:58:15;;;;;;;3.45;3.25;;;2.80;99.90;;;;;;5046042;28;20568;-67
2022/02/06 03:00:50;;;;;;;3.25;3.05;;;2.70;99.90;;;;;;5040624;28;20199;-68
2022/02/06 03:03:22;;;;;;;3.45;3.25;;;2.70;99.90;;;;;;5045296;28;20302;-67
2022/02/06 03:05:51;;;;;;;3.47;3.28;;;2.70;99.90;;;;;;5044265;28;20251;-67
2022/02/06 03:08:20;;;;;;;3.10;2.90;;;2.70;99.90;;;;;;5040654;28;20724;-67
2022/02/06 03:10:50;;;;;;;3.67;3.47;;;2.70;99.90;;;;;;5042196;28;20205;-68
2022/02/06 03:13:19;;;;;;;2.25;2.13;;;2.70;99.90;;;;;;5040430;28;20277;-68
2022/02/06 03:15:51;;;;;;;3.25;3.05;;;2.70;99.90;;;;;;5039063;28;20570;-67
2022/02/06 03:18:20;;;;;;;3.00;2.80;;;2.80;99.90;;;;;;5044097;28;20231;-67
2022/02/06 03:20:49;;;;;;;3.08;2.83;;;2.70;99.90;;;;;;5041163;28;20195;-67
2022/02/06 03:23:16;;;;;;;3.13;2.92;;;2.80;99.90;;;;;;5048911;28;20227;-68
2022/02/06 03:25:49;;;;;;;3.30;3.10;;;2.70;99.90;;;;;;5039755;28;20204;-67
2022/02/06 03:28:18;;;;;;;3.72;3.50;;;2.70;99.90;;;;;;5047911;28;20229;-67
2022/02/06 03:30:45;;;;;;;3.55;3.35;;;2.70;99.90;;;;;;5042677;28;20192;-67
2022/02/06 03:33:12;;;;;;;3.85;3.60;;;2.60;99.90;;;;;;5047502;28;20264;-67
2022/02/06 03:35:40;;;;;;;3.55;3.35;;;2.60;99.90;;;;;;5045713;28;20201;-68
2022/02/06 03:38:08;;;;;;;3.30;3.10;;;2.60;99.90;;;;;;5043859;28;20222;-67
2022/02/06 03:40:41;;;;;;;2.95;2.75;;;2.50;99.90;;;;;;5046730;28;20195;-67
2022/02/06 03:43:14;;;;;;;3.72;3.53;;;2.50;99.90;;;;;;5041323;28;20212;-67
2022/02/06 03:45:46;;;;;;;3.40;3.20;;;2.50;99.90;;;;;;5046425;28;20205;-67
2022/02/06 03:48:20;;;;;;;3.25;3.05;;;2.50;99.90;;;;;;5044622;28;20219;-67
2022/02/06 03:50:50;;;;;;;3.30;3.15;;;2.50;99.90;;;;;;5046230;28;20198;-67
2022/02/06 03:53:21;;;;;;;3.10;2.90;;;2.50;99.90;;;;;;5044999;28;20215;-67
2022/02/06 03:55:49;;;;;;;3.92;3.08;;;2.50;99.90;;;;;;5044853;28;20203;-68
2022/02/06 03:58:17;;;;;;;3.00;2.83;;;2.50;99.90;;;;;;5045400;28;20228;-67
2022/02/06 04:00:45;;;;;;;2.78;2.60;;;2.50;99.90;;;;;;5044899;28;20544;-67
2022/02/06 04:03:13;;;;;;;2.88;2.70;;;2.40;99.90;;;;;;5046602;28;20218;-67
2022/02/06 04:05:45;;;;;;;3.05;2.85;;;2.40;99.90;;;;;;5046905;28;20191;-67
2022/02/06 04:08:15;;;;;;;3.17;2.80;;;2.30;99.90;;;;;;5047559;28;20227;-67
2022/02/06 04:10:46;;;;;;;2.97;2.80;;;2.30;99.90;;;;;;5046436;28;20238;-67
2022/02/06 04:13:17;;;;;;;3.15;2.95;;;2.20;99.90;;;;;;5049743;28;20546;-67
2022/02/06 04:15:49;;;;;;;2.92;2.80;;;2.20;99.90;;;;;;5045500;28;20548;-67
2022/02/06 04:18:23;;;;;;;3.58;3.28;;;2.20;99.90;;;;;;5048161;28;20219;-68
2022/02/06 04:20:50;;;;;;;3.38;3.13;;;2.20;99.90;;;;;;5043772;28;20285;-67
2022/02/06 04:23:17;;;;;;;3.50;3.30;;;2.20;99.90;;;;;;5046467;28;20218;-67
2022/02/06 04:25:44;;;;;;;2.92;2.80;;;2.20;99.90;;;;;;5043720;28;20649;-68
2022/02/06 04:28:11;;;;;;;3.40;3.20;;;2.20;99.90;;;;;;5045579;28;20581;-67
2022/02/06 04:30:39;;;;;;;3.00;2.90;;;2.20;99.90;;;;;;5043955;28;20621;-67
2022/02/06 04:33:08;;;;;;;3.13;2.83;;;2.20;99.90;;;;;;5045504;28;20721;-67
2022/02/06 04:35:38;;;;;;;2.58;2.47;;;2.20;99.90;;;;;;5042655;28;20197;-67
2022/02/06 04:38:24;;;;;;;2.88;2.67;;;2.20;99.90;;;;;;5047514;28;20232;-67
2022/02/06 04:41:03;;;;;;;3.53;3.33;;;2.30;99.90;;;;;;5045016;28;20342;-67
2022/02/06 04:44:02;;;;;;;2.80;2.70;;;2.30;99.90;;;;;;5046637;28;20219;-67
2022/02/06 04:47:13;;;;;;;2.90;2.80;;;2.20;99.90;;;;;;5041842;28;20299;-67
2022/02/06 05:12:04;;;;;;;3.38;3.17;;;2.10;99.90;;;;;;5043631;28;20252;-67
2022/02/06 05:14:38;;;;;;;2.70;2.60;;;2.10;99.90;;;;;;5040785;28;20566;-67
2022/02/06 05:26:08;;;;;;;3.10;2.90;;;2.00;99.90;;;;;;4961894;28;20355;-67
2022/02/06 05:28:41;;;;;;;2.92;2.78;;;2.00;99.90;;;;;;4964275;28;20723;-67
2022/02/06 05:31:11;;;;;;;4.05;3.70;;;2.00;99.90;;;;;;5012419;28;20218;-68
2022/02/06 05:33:38;;;;;;;3.45;3.25;;;2.00;99.90;;;;;;5041443;28;20673;-68
2022/02/06 05:36:09;;;;;;;3.17;2.95;;;2.00;99.90;;;;;;5044708;28;20215;-67
2022/02/06 05:38:37;;;;;;;3.90;3.60;;;1.90;99.90;;;;;;5044648;28;20215;-67
2022/02/06 05:41:06;;;;;;;3.10;2.90;;;1.90;99.90;;;;;;5041436;28;20281;-67
2022/02/06 05:43:35;;;;;;;4.70;4.25;;;1.90;99.90;;;;;;5041122;28;20266;-66
2022/02/06 05:46:02;;;;;;;5.28;4.70;;;1.80;99.90;;;;;;5044541;28;20234;-67
2022/02/06 05:48:29;;;;;;;5.60;5.05;;;1.80;99.90;;;;;;5091073;22;20234;-74
2022/02/06 05:50:57;;;;;;;6.95;5.88;;;1.70;99.90;;;;;;5042407;28;20667;-74
2022/02/06 05:53:24;;;;;;;7.93;6.57;;;1.70;99.90;;;;;;5046515;28;20617;-74
2022/02/06 05:55:52;;;;;;;8.57;6.25;;;1.70;99.90;;;;;;5048134;28;20285;-74
2022/02/06 05:58:19;;;;;;;6.90;5.40;;;1.70;99.90;;;;;;5047327;28;20731;-72
2022/02/06 06:00:47;;;;;;;6.95;5.25;;;1.60;99.90;;;;;;5042090;28;20220;-74
2022/02/06 06:03:14;;;;;;;5.95;5.35;;;1.70;99.90;;;;;;5046496;28;20642;-75
2022/02/06 06:05:41;;;;;;;7.53;6.38;;;1.70;99.90;;;;;;5041316;28;20715;-74
2022/02/06 06:08:08;;;;;;;5.53;5.03;;;1.70;99.90;;;;;;5045456;28;20219;-74
2022/02/06 06:10:35;;;;;;;5.90;5.40;;;1.60;99.90;;;;;;5043903;28;20214;-74
2022/02/06 06:13:03;;;;;;;5.63;5.13;;;1.60;99.90;;;;;;5042588;28;20199;-73
2022/02/06 06:15:31;;;;;;;5.85;5.35;;;1.50;99.90;;;;;;5047324;28;20219;-74
2022/02/06 06:18:03;;;;;;;5.78;5.28;;;1.50;99.90;;;;;;5046788;28;20220;-75
2022/02/06 06:20:31;;;;;;;7.00;6.13;;;1.50;99.90;;;;;;5040314;28;20229;-74
2022/02/06 06:22:58;;;;;;;11.73;7.97;;;1.50;99.90;;;;;;5044273;28;20195;-75
2022/02/06 06:25:26;;;;;;;12.60;8.80;;;1.50;99.90;;;;;;5047219;28;20259;-75
2022/02/06 06:27:55;;;;;;;13.15;9.35;;;1.50;99.90;;;;;;5044888;28;20219;-76
2022/02/06 06:30:24;;;;;;;12.75;9.85;;;1.40;99.90;;;;;;5045700;28;20733;-74
2022/02/06 06:32:51;;;;;;;21.20;14.55;;;1.40;99.90;;;;;;5042660;28;20206;-76
2022/02/06 06:35:18;;;;;;;29.75;20.95;;;1.40;99.90;;;;;;5045022;28;20488;-75
2022/02/06 06:37:47;;;;;;;32.85;23.40;;;1.40;99.90;;;;;;5046266;28;20585;-75
2022/02/06 06:40:14;;;;;;;40.33;26.13;;;1.40;99.90;;;;;;5043706;28;20219;-75
2022/02/06 06:42:41;;;;;;;41.40;25.67;;;1.40;99.90;;;;;;5042686;28;20195;-74
2022/02/06 06:45:09;;;;;;;29.63;20.90;;;1.40;99.90;;;;;;5046159;28;20637;-74
2022/02/06 06:47:38;;;;;;;34.83;20.55;;;1.50;99.90;;;;;;5045447;28;20222;-74
2022/02/06 06:50:05;;;;;;;28.48;17.77;;;1.50;99.90;;;;;;5040080;28;20235;-74
2022/02/06 06:52:32;;;;;;;25.45;15.18;;;1.60;99.90;;;;;;5046394;28;20277;-76
2022/02/06 06:55:02;;;;;;;18.15;13.02;;;1.60;99.90;;;;;;5053127;28;20198;-75
2022/02/06 06:57:34;;;;;;;13.75;9.82;;;1.60;99.90;;;;;;5050981;28;20218;-75
2022/02/06 07:02:46;;;;;;;10.57;7.80;;;1.80;99.90;;;;;;5038624;28;20201;-74
2022/02/06 07:05:14;;;;;;;10.02;7.75;;;1.80;99.90;;;;;;5047211;28;20227;-74
2022/02/06 07:07:41;;;;;;;8.93;6.53;;;1.90;99.90;;;;;;5046049;28;20641;-75
2022/02/06 07:10:08;;;;;;;8.60;6.38;;;1.90;99.90;;;;;;5046467;28;20598;-73
2022/02/06 07:12:35;;;;;;;6.65;5.57;;;1.90;99.90;;;;;;5047283;28;20203;-74
2022/02/06 07:15:02;;;;;;;6.65;5.95;;;1.90;99.90;;;;;;5049556;28;20496;-74
2022/02/06 07:17:29;;;;;;;4.97;4.57;;;1.90;99.90;;;;;;5046184;28;20706;-75
2022/02/06 07:19:58;;;;;;;6.90;6.18;;;1.90;99.90;;;;;;5045799;28;20219;-74
2022/02/06 07:22:25;;;;;;;6.63;6.05;;;1.90;99.90;;;;;;5048818;28;20195;-74
2022/02/06 07:24:53;;;;;;;5.65;5.15;;;2.00;99.90;;;;;;5044279;28;20218;-74
2022/02/06 07:27:25;;;;;;;5.22;4.72;;;2.10;99.90;;;;;;5049542;28;20215;-77
2022/02/06 07:29:52;;;;;;;4.40;4.10;;;2.20;99.90;;;;;;5053029;28;20203;-75
2022/02/06 07:32:20;;;;;;;4.00;3.70;;;2.20;99.90;;;;;;5046704;28;20199;-74
2022/02/06 07:34:47;;;;;;;3.50;3.30;;;2.30;99.90;;;;;;5047374;28;20198;-74
2022/02/06 07:37:16;;;;;;;3.88;3.63;;;2.40;99.90;;;;;;5043731;28;20637;-76
2022/02/06 07:39:44;;;;;;;4.45;4.15;;;2.50;99.90;;;;;;5042412;28;20195;-75
2022/02/06 07:42:12;;;;;;;4.28;3.97;;;2.50;99.90;;;;;;5048879;28;20257;-75
2022/02/06 07:44:39;;;;;;;3.90;3.65;;;2.60;99.90;;;;;;5043771;28;20220;-75
2022/02/06 07:47:15;;;;;;;4.05;3.75;;;2.60;99.90;;;;;;5051278;28;20313;-75
2022/02/06 07:49:45;;;;;;;4.22;3.92;;;2.70;99.90;;;;;;5047095;28;20198;-74
2022/02/06 07:52:13;;;;;;;3.67;3.40;;;2.90;99.90;;;;;;5047379;28;20666;-77
2022/02/06 07:54:42;;;;;;;3.42;3.22;;;3.00;99.90;;;;;;5045380;28;20244;-74
2022/02/06 07:57:09;;;;;;;3.38;3.17;;;3.10;99.90;;;;;;5047674;28;20215;-74
2022/02/06 07:59:36;;;;;;;3.88;3.58;;;3.10;99.90;;;;;;5043871;28;20546;-75
2022/02/06 08:02:05;;;;;;;3.35;3.13;;;3.20;99.90;;;;;;5048267;28;20219;-76
2022/02/06 08:04:33;;;;;;;4.00;3.70;;;3.20;99.90;;;;;;5047831;28;20222;-73
2022/02/06 08:07:00;;;;;;;4.30;3.95;;;3.20;99.90;;;;;;5043833;28;20701;-74
2022/02/06 08:09:43;;;;;;;4.38;4.07;;;3.10;99.90;;;;;;5047154;28;20191;-76
2022/02/06 08:12:12;;;;;;;4.50;4.10;;;3.00;99.90;;;;;;5045428;28;20612;-74
2022/02/06 08:14:52;;;;;;;4.75;4.38;;;2.90;99.90;;;;;;5043857;28;20203;-74
2022/02/06 08:17:25;;;;;;;4.00;3.70;;;2.90;99.90;;;;;;5045519;28;20223;-75
2022/02/06 08:19:52;;;;;;;4.00;3.70;;;2.90;99.90;;;;;;5046406;28;20285;-74
2022/02/06 08:22:19;;;;;;;4.55;4.15;;;3.10;99.90;;;;;;5048863;28;20316;-74
2022/02/06 08:24:47;;;;;;;4.43;4.13;;;3.30;99.90;;;;;;5049472;28;20218;-75
2022/02/06 08:27:16;;;;;;;5.00;4.50;;;3.60;99.90;;;;;;5047091;28;20222;-76
2022/02/06 08:29:45;;;;;;;4.63;4.32;;;3.90;99.90;;;;;;5045978;28;20202;-74
2022/02/06 08:32:13;;;;;;;4.57;4.18;;;4.40;99.90;;;;;;5049824;28;20237;-76
2022/02/06 08:34:40;;;;;;;4.50;4.10;;;4.80;99.90;;;;;;5043939;28;20594;-76
2022/02/06 08:37:08;;;;;;;4.03;3.72;;;5.20;99.90;;;;;;5048478;28;20272;-75
2022/02/06 08:39:36;;;;;;;4.45;4.05;;;5.50;99.90;;;;;;5047783;28;20202;-77
2022/02/06 08:42:06;;;;;;;4.00;3.70;;;5.80;99.90;;;;;;5046001;28;20215;-77
2022/02/06 08:44:35;;;;;;;3.33;3.13;;;5.80;99.90;;;;;;5043772;28;20227;-76
2022/02/06 08:47:03;;;;;;;4.05;3.72;;;5.80;99.90;;;;;;5044221;28;20609;-76
2022/02/06 08:49:30;;;;;;;4.97;3.90;;;5.60;99.90;;;;;;5047831;28;20229;-75
2022/02/06 08:51:57;;;;;;;5.15;4.75;;;5.60;99.90;;;;;;5044216;28;20618;-76
2022/02/06 08:54:28;;;;;;;4.72;4.32;;;5.40;99.90;;;;;;5050177;28;20637;-75
2022/02/06 08:57:00;;;;;;;4.93;4.53;;;5.30;99.90;;;;;;5046116;28;20604;-75
2022/02/06 08:59:27;;;;;;;5.20;4.80;;;5.20;99.90;;;;;;5046861;28;20208;-77
2022/02/06 09:01:55;;;;;;;3.70;3.40;;;5.00;99.90;;;;;;5044505;28;20282;-75
2022/02/06 09:04:22;;;;;;;4.18;3.88;;;4.90;99.90;;;;;;5048348;28;20218;-76
2022/02/06 09:06:49;;;;;;;5.25;4.80;;;4.90;99.90;;;;;;5047035;28;20705;-75
2022/02/06 09:09:16;;;;;;;4.47;4.07;;;4.70;99.90;;;;;;5046531;28;20223;-77
2022/02/06 09:11:45;;;;;;;4.25;3.95;;;4.70;99.90;;;;;;5047408;28;20219;-75
2022/02/06 09:14:13;;;;;;;5.10;4.60;;;4.70;99.90;;;;;;5044716;28;20195;-76
2022/02/06 09:16:41;;;;;;;4.70;4.28;;;4.80;99.90;;;;;;5046400;28;20366;-75
2022/02/06 09:19:12;;;;;;;5.18;4.68;;;4.80;99.90;;;;;;5046899;28;20217;-73
2022/02/06 09:21:39;;;;;;;5.18;4.55;;;5.00;99.90;;;;;;5042472;28;20215;-75
2022/02/06 09:24:07;;;;;;;4.75;4.35;;;5.20;99.90;;;;;;5045547;28;20684;-74
2022/02/06 09:26:35;;;;;;;4.43;4.13;;;5.20;99.90;;;;;;5042874;28;20226;-75
2022/02/06 09:29:02;;;;;;;4.65;4.25;;;5.20;99.90;;;;;;5042315;28;20646;-75
2022/02/06 09:31:29;;;;;;;4.65;4.25;;;5.30;99.90;;;;;;5046247;28;20219;-77
2022/02/06 09:36:24;;;;;;;4.28;3.88;;;5.40;99.90;;;;;;5045448;28;20225;-76
2022/02/06 09:38:51;;;;;;;4.57;4.18;;;5.40;99.90;;;;;;5047119;28;20594;-74
2022/02/06 09:41:19;;;;;;;4.28;3.90;;;5.40;99.90;;;;;;5045406;28;20652;-76
2022/02/06 09:43:46;;;;;;;4.25;3.95;;;5.50;99.90;;;;;;5045550;28;20199;-78
2022/02/06 09:46:15;;;;;;;4.72;4.25;;;5.60;99.90;;;;;;5046503;28;20659;-76
2022/02/06 09:48:43;;;;;;;3.90;3.60;;;5.70;99.90;;;;;;5045329;28;20280;-76
2022/02/06 09:51:11;;;;;;;4.20;3.90;;;6.00;99.90;;;;;;5045186;28;20285;-79
2022/02/06 09:53:40;;;;;;;4.85;4.28;;;6.30;99.90;;;;;;5044677;28;20657;-75
2022/02/06 09:56:12;;;;;;;4.80;4.40;;;6.70;99.90;;;;;;5046039;28;20295;-77
2022/02/06 09:58:59;;;;;;;4.13;3.72;;;7.20;99.90;;;;;;5040741;28;20243;-76
2022/02/06 10:01:28;;;;;;;3.50;3.20;;;8.00;99.90;;;;;;5044654;28;20225;-74
2022/02/06 10:04:03;;;;;;;4.70;4.25;;;8.70;99.90;;;;;;5043285;28;20578;-76
2022/02/06 10:06:36;;;;;;;3.97;3.67;;;8.90;99.90;;;;;;5039238;28;20218;-74
2022/02/06 10:09:05;;;;;;;4.28;3.88;;;9.20;99.90;;;;;;5043458;28;20210;-74
2022/02/06 10:11:39;;;;;;;3.05;2.75;;;9.90;99.90;;;;;;5054604;28;20249;-76
2022/02/06 10:14:06;;;;;;;3.35;3.05;;;10.60;99.90;;;;;;5046787;28;20248;-74
2022/02/06 10:16:33;;;;;;;3.30;3.10;;;11.00;99.90;;;;;;5045323;28;20227;-76
2022/02/06 10:19:00;;;;;;;3.30;3.00;;;11.50;99.90;;;;;;5049196;28;20217;-75
2022/02/06 10:21:32;;;;;;;3.20;2.90;;;11.40;98.70;;;;;;5043456;28;20587;-75
2022/02/06 10:24:07;;;;;;;3.42;3.15;;;11.20;98.10;;;;;;5043229;28;20191;-75
2022/02/06 10:26:40;;;;;;;3.38;3.08;;;11.00;98.80;;;;;;5046926;28;20230;-75
2022/02/06 10:29:25;;;;;;;3.25;2.97;;;11.00;98.10;;;;;;5044560;28;20222;-75
2022/02/06 10:31:56;;;;;;;3.53;2.92;;;11.20;97.90;;;;;;5048653;28;20579;-75
2022/02/06 10:34:26;;;;;;;3.95;3.15;;;11.40;97.90;;;;;;5041268;28;20669;-74
2022/02/06 10:37:10;;;;;;;2.75;2.55;;;11.70;96.80;;;;;;5045215;28;20222;-75
2022/02/06 10:39:39;;;;;;;6.03;3.05;;;12.00;95.90;;;;;;5042067;28;20202;-74
2022/02/06 10:42:20;;;;;;;4.03;3.22;;;11.90;95.30;;;;;;5047770;28;20247;-74
2022/02/06 10:44:47;;;;;;;3.08;2.72;;;11.80;95.00;;;;;;5039941;28;20303;-75
2022/02/06 10:47:14;;;;;;;3.15;2.88;;;12.00;95.90;;;;;;5039500;28;20669;-74
2022/02/06 10:49:41;;;;;;;2.78;2.47;;;12.40;96.20;;;;;;5045877;28;20208;-75
2022/02/06 10:52:09;;;;;;;3.05;2.60;;;12.50;96.00;;;;;;5044936;28;20218;-74
2022/02/06 10:54:39;;;;;;;3.03;2.65;;;12.60;96.20;;;;;;5044545;28;20282;-76
2022/02/06 10:57:10;;;;;;;2.78;2.58;;;12.30;95.30;;;;;;5042226;28;20215;-75
2022/02/06 10:59:45;;;;;;;3.08;2.88;;;11.90;95.20;;;;;;5040248;28;20210;-74
2022/02/06 11:02:25;;;;;;;2.65;2.30;;;11.90;94.50;;;;;;5044260;28;20268;-75
2022/02/06 11:05:06;;;;;;;2.50;2.30;;;11.90;95.30;;;;;;5040051;28;20255;-75
2022/02/06 11:07:34;;;;;;;2.65;2.45;;;11.80;94.80;;;;;;5042677;28;20306;-74
2022/02/06 11:10:09;;;;;;;2.88;2.67;;;11.70;94.70;;;;;;5045500;28;20199;-75
2022/02/06 11:12:40;;;;;;;3.78;2.58;;;11.50;94.40;;;;;;5042605;28;20218;-74
2022/02/06 11:15:23;;;;;;;3.15;2.92;;;11.60;94.50;;;;;;5042465;28;20253;-73
2022/02/06 11:18:06;;;;;;;2.88;2.55;;;11.70;94.50;;;;;;5045653;28;20222;-74
2022/02/06 11:20:33;;;;;;;4.90;2.85;;;11.60;93.50;;;;;;5045728;28;20198;-75
2022/02/06 11:23:03;;;;;;;3.33;2.72;;;11.40;93.90;;;;;;5046965;28;20238;-75
2022/02/06 11:25:31;;;;;;;3.80;3.00;;;11.00;93.60;;;;;;5043983;28;20219;-75
2022/02/06 11:28:01;;;;;;;3.03;2.75;;;10.90;93.80;;;;;;5041986;28;20223;-76
2022/02/06 11:30:28;;;;;;;2.97;2.33;;;11.10;94.20;;;;;;5042683;28;20196;-76
2022/02/06 11:32:55;;;;;;;2.72;2.53;;;11.30;93.90;;;;;;5045382;28;20281;-74
2022/02/06 11:35:26;;;;;;;2.55;2.35;;;11.20;93.10;;;;;;5040883;28;20202;-74
2022/02/06 11:44:16;;;;;;;2.30;2.13;;;10.70;95.40;;;;;;5044849;28;20272;-74
2022/02/06 11:46:53;;;;;;;2.58;2.47;;;11.10;93.70;;;;;;5005611;28;20281;-73
2022/02/06 11:49:21;;;;;;;2.53;2.33;;;11.50;92.70;;;;;;5042490;28;20231;-74
2022/02/06 11:51:53;;;;;;;2.95;2.40;;;11.60;92.30;;;;;;5043457;28;20717;-76
2022/02/06 11:54:32;;;;;;;2.40;2.20;;;11.70;92.90;;;;;;5043001;28;20692;-74
2022/02/06 11:57:29;;;;;;;3.03;2.40;;;11.60;91.70;;;;;;5047233;28;20218;-76
2022/02/06 12:00:19;;;;;;;2.22;2.03;;;11.50;91.20;;;;;;4985336;28;20652;-75
2022/02/06 12:02:51;;;;;;;2.03;1.92;;;11.40;91.20;;;;;;5040992;28;20758;-74
2022/02/06 12:05:27;;;;;;;2.72;2.38;;;11.50;91.50;;;;;;5042213;28;20250;-80
2022/02/06 12:08:10;;;;;;;2.95;2.72;;;11.50;90.40;;;;;;5047893;28;20299;-76
2022/02/06 12:11:12;;;;;;;2.80;2.60;;;11.20;91.00;;;;;;5046023;28;20274;-75
2022/02/06 12:13:41;;;;;;;2.40;2.20;;;11.20;91.10;;;;;;5036948;28;20249;-75
2022/02/06 12:16:22;;;;;;;2.03;1.92;;;11.30;91.40;;;;;;5046341;28;20199;-74
2022/02/06 12:18:49;;;;;;;2.50;2.30;;;11.30;91.10;;;;;;5045863;28;20222;-77
2022/02/06 12:23:46;;;;;;;1.92;1.83;;;11.30;91.40;;;;;;5089931;22;20221;-69
2022/02/06 12:26:38;;;;;;;2.30;2.20;;;11.40;91.70;;;;;;5060638;28;20661;-68
2022/02/06 12:29:08;;;;;;;2.40;2.20;;;11.80;90.80;;;;;;5061671;28;20225;-70
2022/02/06 12:31:47;;;;;;;2.55;2.35;;;12.00;91.00;;;;;;5063737;28;20198;-69
2022/02/06 12:36:52;;;;;;;2.47;2.28;;;11.90;90.30;;;;;;5066751;28;20222;-71
2022/02/06 12:37:23;;;;;;;2.72;2.33;;;11.90;90.20;;;;;;5063274;28;20191;-67
2022/02/06 12:39:56;;;;;;;2.40;2.22;;;11.70;90.70;;;;;;5063629;28;20217;-68
2022/02/06 12:42:27;;;;;;;2.25;2.15;;;11.40;90.30;;;;;;5061387;28;20219;-71
2022/02/06 12:44:56;;;;;;;2.28;2.17;;;11.20;91.10;;;;;;5065069;28;20228;-69
2022/02/06 12:47:28;;;;;;;2.50;2.30;;;10.90;91.50;;;;;;5064105;28;20198;-69
2022/02/06 12:49:55;;;;;;;3.33;2.50;;;10.70;91.70;;;;;;5064287;28;20213;-68
2022/02/06 12:52:23;;;;;;;2.85;2.65;;;10.50;91.90;;;;;;5061121;28;20211;-69
2022/02/06 12:54:50;;;;;;;2.55;2.35;;;10.40;92.20;;;;;;5062131;28;20721;-70
2022/02/06 12:57:20;;;;;;;2.70;2.50;;;10.40;92.40;;;;;;5064744;28;20281;-69
2022/02/06 12:59:48;;;;;;;2.47;2.35;;;10.50;92.00;;;;;;5065049;28;20455;-69
2022/02/06 13:02:22;;;;;;;2.67;2.47;;;10.50;91.80;;;;;;5062713;28;20225;-69
2022/02/06 13:05:12;;;;;;;2.55;2.10;;;10.20;91.60;;;;;;5064840;28;20210;-69
2022/02/06 13:07:43;;;;;;;2.58;2.38;;;9.90;92.20;;;;;;5061550;28;20221;-69
2022/02/06 13:10:11;;;;;;;2.10;2.00;;;9.80;92.20;;;;;;5061867;28;20712;-68
2022/02/06 13:12:44;;;;;;;2.50;2.30;;;9.80;93.00;;;;;;5061987;28;20300;-69
2022/02/06 13:20:59;;;;;;;2.70;2.50;;;9.70;93.10;;;;;;5060439;28;20221;-69
2022/02/06 13:23:42;;;;;;;2.58;2.47;;;9.40;93.00;;;;;;5062076;28;20688;-69
2022/02/06 13:26:17;;;;;;;2.55;2.35;;;9.40;93.30;;;;;;5066793;28;20232;-69
2022/02/06 13:28:54;;;;;;;2.58;2.38;;;9.40;94.10;;;;;;5063201;28;20194;-69
2022/02/06 13:31:41;;;;;;;2.20;2.10;;;9.30;93.70;;;;;;5066117;28;20217;-67
2022/02/06 13:34:28;;;;;;;2.47;2.38;;;9.40;93.70;;;;;;5062437;28;20213;-68
2022/02/06 13:37:07;;;;;;;2.63;2.38;;;9.40;93.50;;;;;;5064489;28;20226;-68
2022/02/06 13:39:38;;;;;;;2.40;2.25;;;9.30;93.90;;;;;;5060828;28;20223;-67
2022/02/06 13:42:15;;;;;;;2.80;2.60;;;9.30;94.20;;;;;;5065940;28;20619;-68
2022/02/06 13:44:42;;;;;;;2.70;2.50;;;9.40;94.20;;;;;;5066453;28;20218;-67
2022/02/06 13:47:10;;;;;;;2.92;2.72;;;9.40;94.00;;;;;;5068729;28;20222;-68
2022/02/06 13:49:42;;;;;;;2.63;2.45;;;9.30;94.40;;;;;;5064571;28;20228;-68
2022/02/06 13:52:12;;;;;;;2.60;2.40;;;9.40;94.30;;;;;;5060818;28;20218;-68
2022/02/06 13:54:43;;;;;;;2.78;2.65;;;9.10;94.30;;;;;;5063658;28;20247;-69
2022/02/06 13:57:10;;;;;;;2.85;2.65;;;8.90;94.60;;;;;;5064611;28;20277;-68
2022/02/06 13:59:39;;;;;;;3.17;2.88;;;8.80;94.90;;;;;;5060308;28;20529;-68
2022/02/06 14:02:08;;;;;;;2.97;2.78;;;8.70;95.10;;;;;;5061903;28;20300;-68
2022/02/06 14:04:37;;;;;;;2.78;2.58;;;8.80;95.30;;;;;;5060104;28;20311;-68
2022/02/06 14:07:06;;;;;;;2.83;2.60;;;8.80;95.40;;;;;;5061501;28;20221;-69
2022/02/06 14:09:45;;;;;;;2.88;2.67;;;8.80;95.30;;;;;;5063554;28;20222;-68
2022/02/06 14:12:16;;;;;;;3.00;2.80;;;8.80;95.30;;;;;;5064223;28;20240;-68
2022/02/06 14:14:50;;;;;;;2.70;2.50;;;8.80;95.40;;;;;;5062748;28;20218;-68
2022/02/06 14:17:19;;;;;;;2.83;2.63;;;8.90;95.50;;;;;;5061294;28;20205;-68
2022/02/06 14:19:47;;;;;;;2.95;2.75;;;8.90;95.50;;;;;;5066309;28;20233;-69
2022/02/06 14:22:29;;;;;;;3.38;3.15;;;8.90;95.50;;;;;;5065189;28;20221;-68
2022/02/06 14:24:59;;;;;;;2.92;2.72;;;9.00;95.60;;;;;;5060356;28;20240;-69
2022/02/06 14:27:32;;;;;;;2.83;2.63;;;9.00;95.30;;;;;;5059785;28;20545;-68
2022/02/06 14:30:11;;;;;;;3.33;3.10;;;8.90;94.90;;;;;;5065790;28;20218;-68
2022/02/06 14:32:56;;;;;;;3.03;2.65;;;8.80;94.90;;;;;;5066843;28;20720;-69
2022/02/06 14:35:28;;;;;;;2.63;2.42;;;8.80;95.00;;;;;;5058959;28;20218;-69
2022/02/06 14:37:58;;;;;;;3.00;2.80;;;8.80;95.10;;;;;;5063181;28;20194;-68
2022/02/06 14:40:39;;;;;;;2.67;2.50;;;8.80;95.00;;;;;;5064592;28;20803;-69
2022/02/06 14:43:11;;;;;;;2.72;2.53;;;8.70;94.90;;;;;;5074634;28;20249;-68
2022/02/06 14:45:45;;;;;;;3.25;2.95;;;8.70;94.80;;;;;;5070522;28;20768;-68
2022/02/06 14:48:12;;;;;;;3.03;2.83;;;8.60;94.60;;;;;;5079900;28;20201;-68
2022/02/06 14:50:39;;;;;;;3.10;2.90;;;8.50;94.40;;;;;;5071744;28;20210;-69